Time;durP1;ratioP1;P1;durP2;ratioP2;P2;SDS_P1;SDS_P2;PMS_P1;PMS_P2;Temp;Humidity;BMP_temperature;BMP_pressure;BME280_temperature;BME280_humidity;BME280_pressure;Samples;Min_cycle;Max_cycle;Signal;HPM_P1;HPM_P2
2022/11/17 00:01:56;;;;;;;130.93;77.28;;;;;;;10.27;89.47;98325.09;5029887;28;20468;-69
2022/11/17 00:04:25;;;;;;;129.00;72.63;;;;;;;10.36;88.90;98314.53;5031048;28;20021;-70
2022/11/17 00:06:51;;;;;;;136.63;77.72;;;;;;;10.21;89.50;98318.97;5012452;28;20140;-70
2022/11/17 00:09:17;;;;;;;134.48;72.88;;;;;;;10.32;89.22;98319.22;5013219;28;20033;-70
2022/11/17 00:14:35;;;;;;;125.68;74.40;;;;;;;10.46;87.66;98325.19;5029264;28;20041;-70
2022/11/17 00:17:03;;;;;;;125.70;71.20;;;;;;;10.49;87.34;98321.66;5011079;28;20045;-70
2022/11/17 00:22:13;;;;;;;123.63;71.28;;;;;;;10.35;87.33;98312.91;5030791;28;20123;-70
2022/11/17 00:24:38;;;;;;;121.82;71.97;;;;;;;10.19;88.52;98322.13;5034779;28;20065;-71
2022/11/17 00:27:04;;;;;;;130.27;72.22;;;;;;;10.23;88.38;98317.41;5032690;28;20037;-70
2022/11/17 00:29:30;;;;;;;124.18;71.18;;;;;;;10.27;88.28;98309.13;5031793;28;20033;-71
2022/11/17 00:34:40;;;;;;;125.93;70.55;;;;;;;10.50;87.16;98314.94;5034535;28;20109;-71
2022/11/17 00:37:07;;;;;;;136.35;73.28;;;;;;;10.55;86.72;98321.41;5033794;28;20030;-70
2022/11/17 00:39:33;;;;;;;130.63;72.70;;;;;;;10.54;87.13;98303.81;5034367;28;20033;-70
2022/11/17 00:41:58;;;;;;;120.55;70.63;;;;;;;10.57;86.85;98305.91;5034315;28;20389;-70
2022/11/17 00:44:25;;;;;;;123.80;67.65;;;;;;;10.53;86.88;98310.56;5034270;28;20033;-70
2022/11/17 00:46:50;;;;;;;131.00;72.10;;;;;;;10.43;87.48;98306.34;5018982;28;20667;-71
2022/11/17 00:49:18;;;;;;;120.50;73.45;;;;;;;10.51;87.50;98313.75;5044169;28;20038;-71
2022/11/17 00:51:44;;;;;;;126.95;72.07;;;;;;;10.58;86.53;98315.06;5014734;28;20029;-71
2022/11/17 00:54:11;;;;;;;115.43;69.07;;;;;;;10.61;86.52;98325.53;5016095;28;20032;-71
2022/11/17 00:56:37;;;;;;;114.35;67.53;;;;;;;10.61;85.79;98312.38;5033470;28;20033;-71
2022/11/17 00:59:02;;;;;;;122.07;68.47;;;;;;;10.56;86.05;98306.25;5032664;28;20484;-70
2022/11/17 01:01:29;;;;;;;128.85;69.97;;;;;;;10.61;85.87;98315.16;5033610;28;20104;-70
2022/11/17 01:04:01;;;;;;;114.40;67.07;;;;;;;10.62;85.49;98305.59;5033884;28;20472;-71
2022/11/17 01:06:34;;;;;;;117.65;70.00;;;;;;;10.61;85.87;98294.75;5033492;28;20044;-69
2022/11/17 01:09:01;;;;;;;121.47;70.40;;;;;;;10.62;85.80;98290.81;5033202;28;20480;-70
2022/11/17 01:11:27;;;;;;;120.13;68.35;;;;;;;10.63;84.85;98293.25;5015617;28;20033;-71
2022/11/17 01:13:55;;;;;;;118.63;68.15;;;;;;;10.64;84.96;98299.66;5032532;28;20025;-70
2022/11/17 01:16:21;;;;;;;108.43;65.05;;;;;;;10.61;85.25;98289.19;5015815;28;20033;-71
2022/11/17 01:18:48;;;;;;;120.93;71.43;;;;;;;10.20;87.12;98286.63;5032896;28;20037;-71
2022/11/17 01:21:24;;;;;;;120.75;70.60;;;;;;;10.39;86.79;98288.66;5015334;28;20087;-71
2022/11/17 01:23:52;;;;;;;120.72;67.40;;;;;;;10.39;86.95;98285.88;5015279;28;20053;-71
2022/11/17 01:26:24;;;;;;;117.28;68.40;;;;;;;10.46;86.61;98286.06;5033467;28;20056;-71
2022/11/17 01:28:50;;;;;;;125.57;71.13;;;;;;;10.47;86.52;98282.06;5014423;28;20030;-70
2022/11/17 01:31:22;;;;;;;127.50;71.38;;;;;;;10.24;87.40;98279.91;5031547;28;20033;-70
2022/11/17 01:33:48;;;;;;;136.57;73.18;;;;;;;10.01;89.34;98278.94;5015326;28;20032;-71
2022/11/17 01:36:17;;;;;;;125.20;72.20;;;;;;;10.03;89.56;98285.00;5033077;28;20108;-71
2022/11/17 01:38:43;;;;;;;122.13;71.88;;;;;;;9.86;90.42;98278.56;5032929;28;20033;-70
2022/11/17 01:41:18;;;;;;;134.80;73.15;;;;;;;9.74;91.43;98282.28;5033212;28;20469;-71
2022/11/17 01:43:46;;;;;;;138.98;75.13;;;;;;;9.35;94.37;98274.44;5013007;28;20029;-70
2022/11/17 01:46:36;;;;;;;156.25;79.45;;;;;;;9.32;95.00;98268.75;5033027;28;20041;-71
2022/11/17 01:49:08;;;;;;;135.90;74.53;;;;;;;9.52;94.01;98258.53;4983935;28;20133;-70
2022/11/17 01:51:37;;;;;;;140.27;75.78;;;;;;;9.74;92.51;98250.72;5013018;28;20125;-71
2022/11/17 01:54:03;;;;;;;126.03;71.30;;;;;;;9.78;92.03;98258.03;5012837;28;20037;-71
2022/11/17 01:56:34;;;;;;;126.72;69.70;;;;;;;9.91;91.03;98250.38;5015568;28;20029;-71
2022/11/17 01:59:18;;;;;;;122.40;68.05;;;;;;;10.01;90.67;98242.63;5013307;28;20056;-71
2022/11/17 02:01:55;;;;;;;132.38;69.47;;;;;;;10.08;89.06;98242.81;5015096;28;20037;-71
2022/11/17 02:04:33;;;;;;;128.60;72.88;;;;;;;10.13;88.94;98245.31;5015125;28;20053;-71
2022/11/17 02:07:12;;;;;;;116.68;65.80;;;;;;;10.07;88.30;98255.16;5014484;28;20035;-70
2022/11/17 02:09:40;;;;;;;125.32;72.32;;;;;;;9.93;88.48;98270.38;5032489;28;20104;-71
2022/11/17 02:12:08;;;;;;;116.18;68.65;;;;;;;10.02;88.12;98255.44;5032552;28;20028;-71
2022/11/17 02:14:35;;;;;;;122.45;68.68;;;;;;;10.04;87.93;98265.06;5031380;28;20021;-71
2022/11/17 02:17:05;;;;;;;109.97;64.18;;;;;;;10.03;86.90;98257.84;5014229;28;20060;-71
2022/11/17 02:19:33;;;;;;;;;;;;;;;10.06;86.17;98268.28;5032768;28;20025;-71
2022/11/17 02:22:02;;;;;;;115.68;63.75;;;;;;;9.80;86.84;98260.47;5031296;28;20370;-71
2022/11/17 02:24:50;;;;;;;123.55;68.97;;;;;;;9.86;87.27;98247.84;5032259;28;20446;-71
2022/11/17 02:27:40;;;;;;;108.10;63.25;;;;;;;9.87;86.13;98229.91;5032358;28;20021;-71
2022/11/17 02:30:11;;;;;;;107.60;63.10;;;;;;;9.92;85.39;98223.25;5017439;28;20400;-70
2022/11/17 02:32:54;;;;;;;108.07;62.17;;;;;;;9.95;84.98;98240.09;5011593;28;21931;-71
2022/11/17 02:35:29;;;;;;;107.72;63.45;;;;;;;9.92;84.94;98232.47;5029624;28;20040;-71
2022/11/17 02:38:12;;;;;;;114.43;62.17;;;;;;;9.93;84.63;98231.28;5008257;28;20447;-71
2022/11/17 02:40:53;;;;;;;101.35;60.08;;;;;;;9.88;84.16;98225.94;5014159;28;20029;-71
2022/11/17 02:46:22;;;;;;;102.25;61.03;;;;;;;9.94;83.63;98226.50;5031722;28;20053;-71
2022/11/17 02:48:53;;;;;;;113.22;62.33;;;;;;;9.90;84.22;98220.84;5012320;28;20167;-71
2022/11/17 02:51:22;;;;;;;103.47;58.90;;;;;;;9.92;84.26;98228.84;5012112;28;20026;-70
2022/11/17 02:53:51;;;;;;;111.03;64.60;;;;;;;9.88;84.12;98211.97;5012267;28;20029;-71
2022/11/17 02:56:16;;;;;;;105.15;62.40;;;;;;;9.90;83.94;98220.00;5011804;28;20483;-71
2022/11/17 02:58:41;;;;;;;108.07;62.90;;;;;;;9.89;84.33;98224.78;5029965;28;20029;-71
2022/11/17 03:01:32;;;;;;;107.75;60.60;;;;;;;9.87;83.42;98212.38;5031518;28;20494;-71
2022/11/17 03:04:06;;;;;;;107.53;62.03;;;;;;;9.85;83.70;98223.09;5031560;28;20489;-70
2022/11/17 03:06:47;;;;;;;104.43;59.38;;;;;;;9.81;84.30;98223.78;5031445;28;20456;-70
2022/11/17 03:09:20;;;;;;;107.50;60.22;;;;;;;9.82;83.98;98211.44;5013291;28;20029;-71
2022/11/17 03:11:58;;;;;;;109.75;62.80;;;;;;;9.81;84.30;98214.63;5031529;28;20194;-71
2022/11/17 03:14:33;;;;;;;109.78;61.53;;;;;;;9.67;84.90;98215.88;5011966;28;20095;-71
2022/11/17 03:17:13;;;;;;;108.80;61.63;;;;;;;9.72;85.26;98216.78;4998604;28;20029;-71
2022/11/17 03:19:48;;;;;;;108.22;63.28;;;;;;;9.75;84.30;98221.63;5031434;28;20036;-71
2022/11/17 03:22:26;;;;;;;100.43;58.65;;;;;;;9.75;84.95;98219.66;5013842;28;20053;-71
2022/11/17 03:24:58;;;;;;;104.72;59.15;;;;;;;9.48;84.77;98215.75;5031454;28;20439;-71
2022/11/17 03:27:27;;;;;;;106.72;61.67;;;;;;;9.49;86.01;98222.97;5011325;28;20112;-71
2022/11/17 03:30:01;;;;;;;118.05;68.45;;;;;;;9.14;87.85;98218.88;5031616;28;20032;-71
2022/11/17 03:32:31;;;;;;;151.32;79.53;;;;;;;9.08;89.97;98215.50;5031528;28;20033;-71
2022/11/17 03:35:05;;;;;;;122.57;73.30;;;;;;;9.02;90.57;98214.13;5031284;28;20496;-71
2022/11/17 03:37:34;;;;;;;122.30;71.22;;;;;;;8.95;91.33;98211.16;5031162;28;20029;-71
2022/11/17 03:40:11;;;;;;;117.50;66.72;;;;;;;8.91;91.95;98213.84;5030150;28;20021;-71
2022/11/17 03:42:41;;;;;;;123.90;70.03;;;;;;;8.87;91.90;98198.16;5024661;28;20071;-71
2022/11/17 03:45:21;;;;;;;131.75;75.28;;;;;;;9.02;91.83;98204.97;5021989;28;20164;-71
2022/11/17 03:47:52;;;;;;;140.80;74.40;;;;;;;8.72;92.94;98192.19;5030186;28;20104;-71
2022/11/17 03:50:22;;;;;;;122.07;68.10;;;;;;;8.98;92.48;98221.59;5031294;28;20026;-70
2022/11/17 03:52:48;;;;;;;;;;;;;;;9.01;91.64;98220.09;5031905;28;20029;-71
2022/11/17 03:55:14;;;;;;;120.82;67.97;;;;;;;8.78;92.80;98196.34;5015705;28;19920;-71
2022/11/17 03:57:49;;;;;;;138.10;75.40;;;;;;;8.84;93.14;98199.69;5033605;28;20064;-72
2022/11/17 04:00:16;;;;;;;129.63;72.35;;;;;;;8.93;93.40;98210.69;5016738;28;20392;-71
2022/11/17 04:02:44;;;;;;;150.73;81.22;;;;;;;8.93;93.07;98197.56;5034801;28;20059;-71
2022/11/17 04:05:12;;;;;;;147.27;80.70;;;;;;;9.02;93.13;98193.81;5017315;28;20014;-71
2022/11/17 04:07:43;;;;;;;130.93;72.88;;;;;;;9.13;91.87;98192.13;5016699;28;20033;-71
2022/11/17 04:10:09;;;;;;;;;;;;;;;9.20;91.80;98183.16;5034691;28;20503;-71
2022/11/17 04:18:18;;;;;;;91.72;52.88;;;;;;;9.25;90.15;98185.66;4990631;28;20107;-71
2022/11/17 04:20:44;;;;;;;87.78;52.40;;;;;;;9.24;89.17;98184.03;5034586;28;20029;-71
2022/11/17 04:23:13;;;;;;;83.57;49.42;;;;;;;9.16;88.52;98180.25;5015717;28;20029;-71
2022/11/17 04:28:36;;;;;;;81.00;52.13;;;;;;;9.18;87.21;98174.31;5034568;28;20122;-71
2022/11/17 04:31:06;;;;;;;85.90;51.10;;;;;;;9.21;86.76;98179.19;5016414;28;20030;-70
2022/11/17 04:33:32;;;;;;;84.15;52.63;;;;;;;9.21;87.13;98173.59;5034307;28;20021;-71
2022/11/17 04:35:58;;;;;;;89.65;52.15;;;;;;;9.19;87.00;98171.16;5034400;28;20047;-71
2022/11/17 04:38:24;;;;;;;87.90;53.58;;;;;;;9.14;86.89;98146.34;5033807;28;20026;-71
2022/11/17 04:43:33;;;;;;;120.88;79.57;;;;;;;9.12;86.45;98141.09;5034241;28;20090;-71
2022/11/17 04:46:01;;;;;;;115.70;77.22;;;;;;;9.09;86.54;98149.38;5033731;28;20041;-71
2022/11/17 04:48:27;;;;;;;100.78;64.75;;;;;;;8.99;87.22;98142.34;5033961;28;20530;-71
2022/11/17 04:50:54;;;;;;;102.85;64.85;;;;;;;9.14;86.64;98146.34;5016487;28;20025;-71
2022/11/17 04:53:19;;;;;;;104.80;64.32;;;;;;;9.17;86.53;98150.38;5033423;28;20389;-69
2022/11/17 04:55:45;;;;;;;111.25;65.53;;;;;;;9.15;86.14;98147.94;5033441;28;20032;-71
2022/11/17 04:58:10;;;;;;;114.30;71.60;;;;;;;9.13;86.83;98142.72;5015249;28;20033;-71
2022/11/17 05:00:36;;;;;;;107.20;67.32;;;;;;;9.12;86.55;98137.50;5051681;28;20025;-71
2022/11/17 05:03:01;;;;;;;105.45;65.25;;;;;;;9.19;86.93;98131.31;5053788;28;20036;-71
2022/11/17 05:05:27;;;;;;;99.53;60.67;;;;;;;9.17;86.45;98134.44;5053374;28;20025;-71
2022/11/17 05:07:52;;;;;;;94.43;58.13;;;;;;;9.19;86.79;98139.69;5042744;28;20024;-71
2022/11/17 05:13:20;;;;;;;103.78;60.88;;;;;;;9.01;86.58;98130.84;5033819;28;20044;-71
2022/11/17 05:13:21;;;;;;;106.50;63.90;;;;;;;9.04;87.56;98128.13;5033290;28;20037;-71
2022/11/17 05:18:39;;;;;;;117.40;67.72;;;;;;;9.19;87.84;98148.84;5033740;28;20078;-69
2022/11/17 05:21:06;;;;;;;125.60;72.22;;;;;;;9.23;87.98;98160.09;5015549;28;20029;-70
2022/11/17 05:26:17;;;;;;;115.93;64.68;;;;;;;8.70;90.25;98172.22;5033543;28;20400;-70
2022/11/17 05:28:42;;;;;;;119.93;65.30;;;;;;;8.64;91.13;98173.63;5032889;28;20026;-69
2022/11/17 05:31:08;;;;;;;111.32;63.97;;;;;;;8.71;90.44;98169.06;5033441;28;20468;-69
2022/11/17 05:33:33;;;;;;;125.10;67.07;;;;;;;8.66;91.01;98165.72;5033350;28;20476;-69
2022/11/17 05:35:59;;;;;;;128.15;70.30;;;;;;;8.74;90.52;98164.75;5032990;28;20108;-69
2022/11/17 05:38:24;;;;;;;120.57;66.70;;;;;;;8.86;90.80;98161.09;5012306;28;20090;-69
2022/11/17 05:40:50;;;;;;;125.95;71.10;;;;;;;8.97;89.73;98165.00;5032042;28;20109;-70
2022/11/17 05:43:15;;;;;;;133.13;69.40;;;;;;;8.98;89.37;98163.03;5033255;28;20049;-70
2022/11/17 05:45:41;;;;;;;127.13;70.43;;;;;;;8.98;89.73;98166.63;5032118;28;20041;-69
2022/11/17 05:48:06;;;;;;;127.57;70.18;;;;;;;9.09;88.98;98171.69;5029816;28;20033;-70
2022/11/17 05:50:32;;;;;;;136.40;75.15;;;;;;;9.07;89.15;98172.06;5029363;28;20412;-76
2022/11/17 05:52:58;;;;;;;136.15;73.80;;;;;;;9.04;89.59;98169.16;5026278;28;20029;-76
2022/11/17 05:55:23;;;;;;;151.85;79.30;;;;;;;9.06;89.34;98172.41;5029058;28;20148;-72
2022/11/17 05:57:50;;;;;;;154.00;90.30;;;;;;;9.11;89.33;98174.91;5031509;28;20068;-71
2022/11/17 06:00:16;;;;;;;174.52;94.30;;;;;;;9.19;88.79;98165.59;5013136;28;20216;-71
2022/11/17 06:02:50;;;;;;;197.73;105.93;;;;;;;9.15;88.41;98170.28;5031766;28;20525;-72
2022/11/17 06:05:16;;;;;;;161.15;91.10;;;;;;;8.65;90.94;98152.94;5013998;28;20041;-71
2022/11/17 06:07:42;;;;;;;156.35;89.00;;;;;;;8.71;91.68;98166.28;5009977;28;20013;-68
2022/11/17 06:10:08;;;;;;;146.68;86.40;;;;;;;8.89;91.94;98184.69;5032103;28;20131;-68
2022/11/17 06:12:33;;;;;;;144.65;82.32;;;;;;;8.95;91.08;98191.63;5013507;28;20029;-68
2022/11/17 06:14:59;;;;;;;135.02;72.78;;;;;;;8.81;92.17;98183.66;5031868;28;20033;-68
2022/11/17 06:17:48;;;;;;;114.38;69.00;;;;;;;8.57;93.00;98185.38;5031121;28;20393;-68
2022/11/17 06:20:25;;;;;;;118.27;68.77;;;;;;;8.64;93.14;98170.84;5011854;28;20106;-68
2022/11/17 06:22:51;;;;;;;115.00;66.10;;;;;;;8.86;91.57;98186.19;5026370;28;20029;-68
2022/11/17 06:25:18;;;;;;;117.88;69.75;;;;;;;8.80;92.06;98182.06;5030781;28;20021;-68
2022/11/17 06:27:45;;;;;;;119.38;68.05;;;;;;;8.89;92.39;98170.75;5030455;28;20025;-68
2022/11/17 06:30:11;;;;;;;122.18;66.70;;;;;;;8.83;91.83;98157.06;5000582;28;20087;-68
2022/11/17 06:32:39;;;;;;;111.55;61.95;;;;;;;8.96;91.90;98162.59;5024151;28;20025;-67
2022/11/17 06:35:07;;;;;;;118.25;64.10;;;;;;;8.94;91.33;98142.63;5010041;28;20038;-68
2022/11/17 06:37:33;;;;;;;121.30;69.38;;;;;;;8.85;91.81;98149.16;5024923;28;20036;-67
2022/11/17 06:39:58;;;;;;;154.82;80.22;;;;;;;8.86;92.36;98149.94;5018101;28;20405;-68
2022/11/17 06:43:09;;;;;;;146.43;81.72;;;;;;;8.93;92.29;98138.19;5021268;28;20097;-67
2022/11/17 06:45:10;;;;;;;128.57;70.93;;;;;;;8.77;92.69;98141.75;5017161;28;20132;-68
2022/11/17 06:47:35;;;;;;;124.60;67.00;;;;;;;8.43;96.00;98130.00;5029234;28;20485;-67
2022/11/17 06:50:01;;;;;;;131.50;67.28;;;;;;;8.59;95.63;98123.72;5012487;28;20032;-67
2022/11/17 06:52:27;;;;;;;121.82;67.72;;;;;;;8.61;95.28;98122.19;5024664;28;20029;-67
2022/11/17 06:54:52;;;;;;;115.00;66.18;;;;;;;8.68;95.67;98114.03;5028789;28;20021;-67
2022/11/17 06:57:18;;;;;;;124.68;69.40;;;;;;;8.82;94.71;98108.03;5030212;28;20067;-66
2022/11/17 06:59:43;;;;;;;126.68;70.78;;;;;;;9.01;93.18;98116.91;5008843;28;20084;-71
2022/11/17 07:02:09;;;;;;;132.55;71.05;;;;;;;9.10;93.48;98111.94;5031897;28;20056;-68
2022/11/17 07:04:34;;;;;;;129.27;74.82;;;;;;;9.13;92.75;98111.25;5013909;28;20021;-69
2022/11/17 07:07:00;;;;;;;122.72;68.40;;;;;;;9.10;93.12;98114.72;5026155;28;20022;-66
2022/11/17 07:09:25;;;;;;;116.75;63.08;;;;;;;9.06;93.01;98109.06;5027841;28;20022;-69
2022/11/17 07:11:51;;;;;;;111.55;62.92;;;;;;;9.20;92.94;98102.25;5030175;28;20028;-70
2022/11/17 07:14:16;;;;;;;114.47;63.33;;;;;;;9.15;93.04;98100.53;5029692;28;20389;-69
2022/11/17 07:16:42;;;;;;;113.35;62.17;;;;;;;9.10;94.06;98123.91;5012903;28;20029;-67
2022/11/17 07:19:09;;;;;;;116.90;66.72;;;;;;;8.98;95.17;98137.94;5030571;28;20059;-67
2022/11/17 07:21:35;;;;;;;122.55;69.50;;;;;;;9.10;95.53;98135.06;5029573;28;20051;-69
2022/11/17 07:24:02;;;;;;;135.50;76.07;;;;;;;9.07;95.73;98141.38;5025694;28;20036;-68
2022/11/17 07:26:27;;;;;;;182.77;103.63;;;;;;;8.99;96.84;98156.28;5031066;28;20508;-68
2022/11/17 07:28:53;;;;;;;208.38;127.30;;;;;;;9.00;97.41;98157.91;5030909;28;20105;-72
2022/11/17 07:31:19;;;;;;;229.20;130.02;;;;;;;8.91;97.89;98160.03;5015350;28;20034;-69
2022/11/17 07:33:44;;;;;;;208.10;117.75;;;;;;;8.74;100.00;98166.72;5033864;28;20026;-68
2022/11/17 07:36:11;;;;;;;193.88;103.97;;;;;;;8.49;100.00;98166.78;5034850;28;20476;-68
2022/11/17 07:38:38;;;;;;;200.30;103.25;;;;;;;8.60;100.00;98173.50;5009745;28;20446;-72
2022/11/17 07:41:04;;;;;;;175.98;93.53;;;;;;;8.76;100.00;98165.22;5035388;28;20026;-71
2022/11/17 07:43:30;;;;;;;157.25;82.07;;;;;;;8.63;100.00;98155.28;5017516;28;20032;-69
2022/11/17 07:45:56;;;;;;;146.75;78.45;;;;;;;8.82;100.00;98144.28;5034759;28;20471;-71
2022/11/17 07:48:21;;;;;;;144.70;78.35;;;;;;;8.98;100.00;98141.50;5016022;28;20025;-71
2022/11/17 07:50:47;;;;;;;136.48;74.45;;;;;;;9.12;99.87;98138.31;5007257;28;20026;-70
2022/11/17 07:53:12;;;;;;;149.05;78.05;;;;;;;9.22;98.63;98138.97;5009940;28;20424;-71
2022/11/17 07:55:38;;;;;;;159.00;83.38;;;;;;;9.29;97.84;98141.94;5034719;28;20018;-64
2022/11/17 07:58:04;;;;;;;131.57;72.40;;;;;;;9.36;98.13;98147.69;5034930;28;20065;-67
2022/11/17 08:00:32;;;;;;;144.80;72.80;;;;;;;9.47;97.55;98147.97;5034789;28;20025;-66
2022/11/17 08:03:03;;;;;;;193.27;115.63;;;;;;;9.55;96.73;98160.13;5018294;28;20014;-67
2022/11/17 08:05:30;;;;;;;158.82;91.85;;;;;;;9.55;95.86;98149.75;5034416;28;20105;-66
2022/11/17 08:07:58;;;;;;;136.73;78.43;;;;;;;9.57;96.37;98154.16;5009377;28;20028;-66
2022/11/17 08:10:29;;;;;;;139.85;84.38;;;;;;;9.53;96.02;98170.81;5023004;28;20032;-66
2022/11/17 08:12:56;;;;;;;139.73;81.78;;;;;;;9.62;95.84;98170.66;5032286;28;20039;-68
2022/11/17 08:15:21;;;;;;;139.88;78.90;;;;;;;9.45;97.21;98181.00;5032588;28;20025;-67
2022/11/17 08:17:54;;;;;;;130.98;73.70;;;;;;;9.43;98.08;98182.56;5031778;28;20033;-67
2022/11/17 08:20:21;;;;;;;135.20;74.75;;;;;;;9.24;98.84;98176.50;5031353;28;20033;-67
2022/11/17 08:22:51;;;;;;;133.95;74.60;;;;;;;9.38;98.98;98181.63;5030892;28;20029;-66
2022/11/17 08:25:20;;;;;;;129.10;72.43;;;;;;;9.49;98.26;98172.72;5014555;28;20045;-68
2022/11/17 08:27:50;;;;;;;140.37;77.13;;;;;;;9.42;98.47;98198.47;5032433;28;20570;-67
2022/11/17 08:30:19;;;;;;;155.38;85.78;;;;;;;9.11;100.00;98236.28;5031230;28;20036;-68
2022/11/17 08:32:50;;;;;;;136.45;78.25;;;;;;;8.85;100.00;98266.25;5031108;28;20033;-67
2022/11/17 08:35:16;;;;;;;106.88;61.17;;;;;;;8.75;100.00;98271.50;5013201;28;20040;-66
2022/11/17 08:37:41;;;;;;;118.13;64.55;;;;;;;8.71;100.00;98286.16;5031658;28;20037;-67
2022/11/17 08:40:07;;;;;;;126.70;70.40;;;;;;;8.65;100.00;98281.16;5032085;28;20029;-66
2022/11/17 08:42:33;;;;;;;126.15;67.47;;;;;;;8.72;100.00;98309.28;5013224;28;20231;-66
2022/11/17 08:44:59;;;;;;;148.75;81.63;;;;;;;8.73;100.00;98315.66;5027975;28;20037;-69
2022/11/17 08:47:25;;;;;;;152.60;79.28;;;;;;;8.78;100.00;98301.50;5030987;28;20519;-66
2022/11/17 08:49:50;;;;;;;286.00;134.85;;;;;;;8.78;100.00;98310.66;5029942;28;20553;-67
2022/11/17 08:52:18;;;;;;;122.70;63.45;;;;;;;8.83;100.00;98309.59;5031587;28;20037;-66
2022/11/17 08:54:43;;;;;;;118.63;64.07;;;;;;;8.88;100.00;98314.94;5030534;28;20519;-65
2022/11/17 08:57:09;;;;;;;125.55;65.70;;;;;;;8.94;100.00;98309.94;5031358;28;20041;-69
2022/11/17 08:59:34;;;;;;;122.45;62.80;;;;;;;8.96;100.00;98310.41;5031872;28;20084;-66
2022/11/17 09:02:00;;;;;;;113.10;60.03;;;;;;;9.03;100.00;98299.44;5027130;28;20034;-69
2022/11/17 09:04:25;;;;;;;110.55;57.33;;;;;;;9.16;100.00;98303.00;5030550;28;20036;-69
2022/11/17 09:06:51;;;;;;;106.88;56.67;;;;;;;9.16;100.00;98299.38;5013335;28;20037;-69
2022/11/17 09:09:17;;;;;;;105.30;56.63;;;;;;;9.30;100.00;98307.38;5031441;28;20531;-68
2022/11/17 09:11:42;;;;;;;135.55;93.65;;;;;;;9.43;100.00;98302.56;5029250;28;20033;-68
2022/11/17 09:14:08;;;;;;;284.05;193.52;;;;;;;9.34;100.00;98295.16;5011044;28;20029;-69
2022/11/17 09:16:34;;;;;;;172.57;103.55;;;;;;;9.26;100.00;98282.16;5030165;28;20029;-68
2022/11/17 09:19:01;;;;;;;250.65;157.23;;;;;;;9.26;100.00;98276.56;5012808;28;20037;-69
2022/11/17 09:21:29;;;;;;;125.72;71.65;;;;;;;9.15;100.00;98253.97;5030345;28;20539;-68
2022/11/17 09:23:54;;;;;;;156.23;91.80;;;;;;;9.12;100.00;98244.31;5032255;28;20064;-71
2022/11/17 09:26:20;;;;;;;132.10;75.10;;;;;;;9.21;100.00;98240.56;5010912;28;20413;-68
2022/11/17 09:28:46;;;;;;;129.85;73.07;;;;;;;9.25;100.00;98247.88;5029311;28;20025;-73
2022/11/17 09:31:17;;;;;;;163.73;101.03;;;;;;;9.36;100.00;98242.56;5019605;28;20041;-70
2022/11/17 09:33:43;;;;;;;144.27;88.10;;;;;;;9.50;100.00;98230.16;5018885;28;20057;-71
2022/11/17 09:36:10;;;;;;;143.48;85.65;;;;;;;9.56;100.00;98220.38;5028358;28;20609;-70
2022/11/17 09:38:36;;;;;;;109.10;57.55;;;;;;;9.65;100.00;98211.81;4999224;28;20041;-70
2022/11/17 09:41:21;;;;;;;120.10;64.00;;;;;;;9.63;100.00;98197.41;5010454;28;20041;-70
2022/11/17 09:43:50;;;;;;;130.68;74.35;;;;;;;9.67;100.00;98187.97;5005975;28;20033;-69
2022/11/17 09:46:24;;;;;;;164.15;112.25;;;;;;;9.76;100.00;98181.38;5025450;28;20087;-69
2022/11/17 09:49:10;;;;;;;113.15;64.07;;;;;;;9.85;100.00;98182.00;5023424;28;20029;-69
2022/11/17 09:51:38;;;;;;;129.35;68.30;;;;;;;9.93;100.00;98182.97;5008993;28;20033;-68
2022/11/17 09:54:37;;;;;;;124.05;65.38;;;;;;;9.98;100.00;98179.91;5013887;28;20068;-67
2022/11/17 09:57:04;;;;;;;119.60;60.55;;;;;;;10.04;100.00;98166.47;5011358;28;20051;-69
2022/11/17 09:59:31;;;;;;;105.93;58.70;;;;;;;10.19;100.00;98160.03;5023463;28;20048;-69
2022/11/17 10:01:57;;;;;;;94.13;52.80;;;;;;;10.33;100.00;98164.34;5017334;28;20037;-69
2022/11/17 10:04:28;;;;;;;98.93;52.90;;;;;;;10.58;100.00;98176.09;4999764;28;20034;-69
2022/11/17 10:06:53;;;;;;;84.18;50.97;;;;;;;10.74;100.00;98167.66;5013711;28;20029;-69
2022/11/17 10:09:24;;;;;;;92.35;53.17;;;;;;;10.89;100.00;98157.53;5028551;28;20029;-70
2022/11/17 10:11:52;;;;;;;90.78;51.40;;;;;;;10.94;100.00;98148.03;5026304;28;20033;-70
2022/11/17 10:14:21;;;;;;;91.37;54.13;;;;;;;11.10;100.00;98145.16;5022933;28;20390;-68
2022/11/17 10:16:53;;;;;;;85.40;50.08;;;;;;;11.24;100.00;98145.41;5014571;28;20126;-67
2022/11/17 10:19:22;;;;;;;79.28;45.47;;;;;;;11.34;100.00;98141.19;5013199;28;20021;-67
2022/11/17 10:21:55;;;;;;;83.80;46.67;;;;;;;11.55;100.00;98130.75;5000294;28;20034;-67
2022/11/17 10:24:35;;;;;;;96.00;60.40;;;;;;;11.76;100.00;98133.06;5026508;28;20025;-67
2022/11/17 10:27:16;;;;;;;87.88;58.78;;;;;;;11.80;100.00;98129.16;5004806;28;20031;-69
2022/11/17 10:30:00;;;;;;;83.43;50.85;;;;;;;11.88;100.00;98120.84;5021929;28;20429;-71
2022/11/17 10:32:30;;;;;;;69.55;44.28;;;;;;;11.96;100.00;98099.38;5005944;28;21798;-70
2022/11/17 10:35:12;;;;;;;76.03;46.33;;;;;;;12.13;99.60;98098.03;5016956;28;20523;-69
2022/11/17 10:37:54;;;;;;;70.57;45.03;;;;;;;12.32;98.32;98106.28;5014807;28;20056;-68
2022/11/17 10:40:22;;;;;;;77.10;42.97;;;;;;;12.55;97.83;98102.56;5021714;28;20084;-68
2022/11/17 10:43:16;;;;;;;74.15;45.65;;;;;;;12.98;95.12;98096.66;5010612;28;20044;-68
2022/11/17 10:45:51;;;;;;;72.78;43.15;;;;;;;13.24;93.17;98091.28;5017351;28;20087;-68
2022/11/17 10:48:34;;;;;;;69.35;43.75;;;;;;;13.21;92.04;98084.44;5022276;28;20041;-70
2022/11/17 10:51:01;;;;;;;58.63;35.95;;;;;;;13.04;93.07;98095.13;5028238;28;20194;-68
2022/11/17 10:53:35;;;;;;;57.38;34.50;;;;;;;13.31;94.26;98088.53;5010571;28;20041;-70
2022/11/17 10:56:14;;;;;;;51.28;29.88;;;;;;;13.53;90.92;98089.56;5026841;28;20074;-70
2022/11/17 10:59:01;;;;;;;42.40;27.00;;;;;;;13.58;91.19;98085.59;5028780;28;20435;-69
2022/11/17 11:01:35;;;;;;;41.72;25.33;;;;;;;13.66;90.54;98081.63;5027790;28;20119;-68
2022/11/17 11:04:03;;;;;;;36.72;23.02;;;;;;;13.72;88.04;98082.06;5023750;28;20029;-69
2022/11/17 11:06:31;;;;;;;38.13;24.98;;;;;;;13.64;90.86;98078.41;5029311;28;20400;-69
2022/11/17 11:09:13;;;;;;;38.92;24.42;;;;;;;13.58;90.44;98077.97;5011924;28;20037;-68
2022/11/17 11:11:41;;;;;;;38.80;24.80;;;;;;;13.56;90.20;98088.78;5016702;28;20041;-67
2022/11/17 11:14:47;;;;;;;37.85;23.73;;;;;;;13.46;91.04;98087.50;5018684;28;20394;-69
2022/11/17 11:17:17;;;;;;;41.08;26.77;;;;;;;13.53;92.29;98089.56;5023075;28;20121;-68
2022/11/17 11:19:49;;;;;;;38.95;26.63;;;;;;;13.50;90.28;98086.72;5005671;28;20092;-69
2022/11/17 11:22:23;;;;;;;46.10;30.15;;;;;;;13.61;90.95;98088.41;5018999;28;20026;-70
2022/11/17 11:25:09;;;;;;;47.05;28.27;;;;;;;13.78;88.12;98093.75;5015303;28;20030;-68
2022/11/17 11:27:40;;;;;;;44.70;27.23;;;;;;;14.04;88.95;98087.91;4986786;28;20038;-71
2022/11/17 11:30:12;;;;;;;43.85;24.77;;;;;;;14.13;88.91;98083.94;5011840;28;20026;-69
2022/11/17 11:32:37;;;;;;;34.67;23.15;;;;;;;14.16;89.76;98078.34;5025900;28;20064;-70
2022/11/17 11:35:28;;;;;;;35.97;20.98;;;;;;;13.98;87.71;98074.63;5018729;28;20100;-70
2022/11/17 11:38:03;;;;;;;34.75;23.20;;;;;;;14.20;88.73;98075.56;5028122;28;20518;-68
2022/11/17 11:40:34;;;;;;;27.23;18.52;;;;;;;14.14;84.21;98092.00;5007662;28;20049;-69
2022/11/17 11:43:29;;;;;;;25.38;17.45;;;;;;;14.20;83.05;98089.63;5015304;28;20022;-66
2022/11/17 11:46:09;;;;;;;25.25;17.27;;;;;;;14.22;84.23;98090.03;4998584;28;20049;-67
2022/11/17 11:48:38;;;;;;;;;;;;;;;14.48;84.08;98092.94;5015177;28;20034;-68
2022/11/17 11:51:07;;;;;;;19.83;13.15;;;;;;;14.71;78.99;98101.09;5028284;28;20417;-68
2022/11/17 11:53:50;;;;;;;20.30;12.93;;;;;;;14.80;80.48;98107.19;5014721;28;20460;-67
2022/11/17 11:56:19;;;;;;;19.10;13.88;;;;;;;14.98;78.18;98097.97;5017609;28;20033;-68